Time;durP1;ratioP1;P1;durP2;ratioP2;P2;SDS_P1;SDS_P2;PMS_P1;PMS_P2;Temp;Humidity;BMP_temperature;BMP_pressure;BME280_temperature;BME280_humidity;BME280_pressure;Samples;Min_cycle;Max_cycle;Signal;HPM_P1;HPM_P2
2023/04/16 00:02:01;;;;;;;15.00;3.63;;;8.90;99.90;;;;;;5069507;28;20465;-69
2023/04/16 00:04:27;;;;;;;18.95;5.88;;;8.90;99.90;;;;;;5071217;28;20485;-69
2023/04/16 00:06:54;;;;;;;23.88;6.03;;;8.90;99.90;;;;;;5072597;28;20075;-69
2023/04/16 00:09:19;;;;;;;24.27;8.43;;;8.90;99.90;;;;;;5071244;28;20464;-70
2023/04/16 00:11:45;;;;;;;20.30;6.40;;;8.90;99.90;;;;;;5069522;28;20024;-70
2023/04/16 00:14:10;;;;;;;9.02;2.88;;;8.90;99.90;;;;;;5067031;28;20459;-70
2023/04/16 00:16:37;;;;;;;16.80;5.13;;;8.80;99.90;;;;;;5072545;28;20434;-71
2023/04/16 00:19:03;;;;;;;16.48;4.05;;;8.80;99.90;;;;;;5069504;28;20044;-70
2023/04/16 00:21:28;;;;;;;21.25;6.97;;;8.80;99.90;;;;;;5067918;28;20033;-69
2023/04/16 00:23:54;;;;;;;19.48;5.80;;;8.80;99.90;;;;;;5070969;28;20037;-69
2023/04/16 00:26:20;;;;;;;15.57;4.35;;;8.80;99.90;;;;;;5071756;28;20108;-69
2023/04/16 00:28:45;;;;;;;21.60;6.10;;;8.80;99.90;;;;;;5068995;28;20402;-69
2023/04/16 00:31:11;;;;;;;16.48;4.03;;;8.80;99.90;;;;;;5078032;28;20063;-69
2023/04/16 00:33:36;;;;;;;12.93;5.43;;;8.90;99.90;;;;;;5077529;28;20120;-70
2023/04/16 00:36:02;;;;;;;24.42;7.07;;;8.90;99.90;;;;;;5072220;28;20071;-70
2023/04/16 00:38:29;;;;;;;23.30;6.78;;;8.80;99.90;;;;;;5070438;28;20028;-69
2023/04/16 00:40:57;;;;;;;26.75;6.88;;;8.90;99.90;;;;;;5069053;28;20104;-70
2023/04/16 00:43:24;;;;;;;20.27;7.70;;;8.90;99.90;;;;;;5063804;28;20401;-69
2023/04/16 00:45:51;;;;;;;21.92;7.97;;;8.90;99.90;;;;;;5065504;28;20373;-70
2023/04/16 00:48:19;;;;;;;16.38;4.88;;;8.90;99.90;;;;;;5068107;28;20059;-70
2023/04/16 00:50:45;;;;;;;19.65;6.97;;;8.90;99.90;;;;;;5068870;28;20070;-70
2023/04/16 00:53:10;;;;;;;27.23;7.80;;;9.00;99.90;;;;;;5071796;28;20120;-68
2023/04/16 00:55:36;;;;;;;20.60;7.00;;;9.00;99.90;;;;;;5071056;28;20028;-68
2023/04/16 00:58:03;;;;;;;21.00;6.28;;;9.00;99.90;;;;;;5072959;28;20029;-68
2023/04/16 01:00:28;;;;;;;24.35;8.27;;;9.10;99.90;;;;;;5071170;28;20029;-70
2023/04/16 01:02:54;;;;;;;21.20;7.20;;;9.10;99.90;;;;;;5070989;28;20051;-68
2023/04/16 01:05:20;;;;;;;16.67;5.97;;;9.20;99.90;;;;;;5072349;28;20029;-68
2023/04/16 01:07:45;;;;;;;15.85;5.40;;;9.20;99.90;;;;;;5092472;28;20036;-68
2023/04/16 01:10:11;;;;;;;25.58;9.07;;;9.20;99.90;;;;;;5077110;28;20025;-69
2023/04/16 01:12:36;;;;;;;19.67;6.93;;;9.20;99.90;;;;;;5088971;28;20451;-69
2023/04/16 01:15:02;;;;;;;23.63;6.97;;;9.20;99.90;;;;;;5083060;28;20434;-69
2023/04/16 01:17:28;;;;;;;23.92;8.02;;;9.30;99.90;;;;;;5072583;28;20096;-69
2023/04/16 01:19:58;;;;;;;18.10;5.47;;;9.30;99.90;;;;;;5071717;28;20028;-69
2023/04/16 01:22:23;;;;;;;18.92;5.78;;;9.20;99.90;;;;;;5074594;28;20063;-69
2023/04/16 01:24:49;;;;;;;26.17;7.60;;;9.30;99.90;;;;;;5078035;28;20052;-69
2023/04/16 01:27:15;;;;;;;20.15;6.18;;;9.20;99.90;;;;;;5072577;28;20036;-68
2023/04/16 01:29:40;;;;;;;23.83;7.43;;;9.30;99.90;;;;;;5071080;28;20482;-68
2023/04/16 01:32:06;;;;;;;24.98;6.50;;;9.30;99.90;;;;;;5084112;28;20032;-67
2023/04/16 01:34:31;;;;;;;23.60;7.90;;;9.30;99.90;;;;;;5092111;28;20136;-68
2023/04/16 01:36:57;;;;;;;27.65;11.00;;;9.30;99.90;;;;;;5071575;28;20345;-68
2023/04/16 01:39:22;;;;;;;22.85;7.18;;;9.30;99.90;;;;;;5072197;28;20078;-69
2023/04/16 01:41:48;;;;;;;24.52;7.95;;;9.20;99.90;;;;;;5072583;28;20024;-68
2023/04/16 01:44:13;;;;;;;21.67;7.18;;;9.30;99.90;;;;;;5071735;28;20469;-68
2023/04/16 01:46:39;;;;;;;23.55;8.50;;;9.20;99.90;;;;;;5072043;28;20033;-68
2023/04/16 01:49:06;;;;;;;28.17;10.50;;;9.30;99.90;;;;;;5070130;28;20024;-68
2023/04/16 01:51:31;;;;;;;29.67;10.55;;;9.30;99.90;;;;;;5072103;28;20036;-68
2023/04/16 01:53:57;;;;;;;20.52;8.00;;;9.20;99.90;;;;;;5071148;28;20069;-69
2023/04/16 01:56:23;;;;;;;28.13;6.00;;;9.20;99.90;;;;;;5073701;28;20029;-69
2023/04/16 01:58:49;;;;;;;28.20;9.32;;;9.20;99.90;;;;;;5088436;28;20032;-69
2023/04/16 02:01:14;;;;;;;23.48;6.28;;;9.20;99.90;;;;;;5085719;28;20028;-69
2023/04/16 02:03:41;;;;;;;14.60;4.10;;;9.20;99.90;;;;;;5075732;28;20040;-68
2023/04/16 02:06:06;;;;;;;16.55;5.82;;;9.20;99.90;;;;;;5074949;28;20024;-69
2023/04/16 02:08:32;;;;;;;20.20;6.65;;;9.20;99.90;;;;;;5075633;28;20043;-67
2023/04/16 02:10:59;;;;;;;40.65;19.13;;;9.20;99.90;;;;;;5074553;28;20729;-68
2023/04/16 02:13:25;;;;;;;28.15;10.82;;;9.20;99.90;;;;;;5075016;28;20033;-68
2023/04/16 02:15:51;;;;;;;29.35;9.32;;;9.20;99.90;;;;;;5075022;28;20024;-67
2023/04/16 02:18:17;;;;;;;35.28;18.75;;;9.20;99.90;;;;;;5075528;28;20032;-68
2023/04/16 02:20:45;;;;;;;37.35;18.55;;;9.20;99.90;;;;;;5075140;28;20036;-69
2023/04/16 02:23:13;;;;;;;33.58;13.63;;;9.20;99.90;;;;;;5055372;28;20535;-69
2023/04/16 02:25:44;;;;;;;19.00;5.18;;;9.10;99.90;;;;;;5056315;28;20500;-69
2023/04/16 02:28:13;;;;;;;28.23;14.02;;;9.20;99.90;;;;;;5055138;28;20057;-69
2023/04/16 02:30:40;;;;;;;21.15;8.32;;;9.20;99.90;;;;;;5071633;28;20578;-68
2023/04/16 02:33:06;;;;;;;23.35;8.55;;;9.20;99.90;;;;;;5078708;28;20429;-69
2023/04/16 02:35:33;;;;;;;21.00;8.13;;;9.20;99.90;;;;;;5095214;28;20031;-69
2023/04/16 02:37:59;;;;;;;16.73;4.53;;;9.20;99.90;;;;;;5074886;28;20037;-68
2023/04/16 02:40:25;;;;;;;22.70;7.53;;;9.20;99.90;;;;;;5074882;28;20028;-70
2023/04/16 02:42:52;;;;;;;19.50;4.20;;;9.20;99.90;;;;;;5077594;28;20089;-69
2023/04/16 02:45:18;;;;;;;21.92;5.43;;;9.20;99.90;;;;;;5074897;28;20104;-68
2023/04/16 02:47:44;;;;;;;16.92;6.20;;;9.20;99.90;;;;;;5074063;28;20037;-69
2023/04/16 02:50:10;;;;;;;14.57;4.38;;;9.10;99.90;;;;;;5075051;28;20025;-68
2023/04/16 02:52:35;;;;;;;11.70;3.38;;;9.10;99.90;;;;;;5078693;28;20519;-69
2023/04/16 02:55:01;;;;;;;19.42;3.78;;;9.10;99.90;;;;;;5074376;28;20055;-69
2023/04/16 02:57:27;;;;;;;19.98;4.53;;;9.10;99.90;;;;;;5073922;28;20111;-69
2023/04/16 02:59:52;;;;;;;15.45;3.67;;;9.10;99.90;;;;;;5074371;28;20060;-69
2023/04/16 03:02:18;;;;;;;17.20;3.95;;;9.10;99.90;;;;;;5080592;28;20024;-68
2023/04/16 03:04:43;;;;;;;12.32;3.85;;;9.10;99.90;;;;;;5074317;28;20036;-70
2023/04/16 03:07:11;;;;;;;12.93;2.95;;;9.10;99.90;;;;;;5072972;28;20031;-68
2023/04/16 03:09:36;;;;;;;13.52;3.45;;;9.00;99.90;;;;;;5079687;28;20081;-68
2023/04/16 03:12:02;;;;;;;16.55;4.10;;;9.10;99.90;;;;;;5081587;28;20036;-68
2023/04/16 03:14:28;;;;;;;18.55;4.30;;;9.00;99.90;;;;;;5072641;28;20480;-68
2023/04/16 03:16:53;;;;;;;15.88;4.07;;;9.10;99.90;;;;;;5073477;28;20032;-67
2023/04/16 03:19:19;;;;;;;12.43;4.10;;;9.10;99.90;;;;;;5074024;28;20071;-69
2023/04/16 03:21:44;;;;;;;12.43;3.60;;;9.00;99.90;;;;;;5087119;28;20442;-68
2023/04/16 03:24:10;;;;;;;19.90;5.03;;;9.10;99.90;;;;;;5073149;28;20047;-70
2023/04/16 03:26:36;;;;;;;15.65;4.32;;;9.10;99.90;;;;;;5072906;28;20055;-68
2023/04/16 03:29:01;;;;;;;14.93;4.57;;;9.00;99.90;;;;;;5075874;28;20052;-67
2023/04/16 03:31:27;;;;;;;15.55;5.22;;;9.00;99.90;;;;;;5080613;28;20031;-66
2023/04/16 03:33:53;;;;;;;17.08;4.57;;;9.00;99.90;;;;;;5078920;28;20036;-70
2023/04/16 03:36:18;;;;;;;19.33;5.60;;;9.10;99.90;;;;;;5073961;28;20032;-68
2023/04/16 03:38:44;;;;;;;24.65;5.55;;;9.10;99.90;;;;;;5073250;28;20421;-69
2023/04/16 03:41:10;;;;;;;19.45;3.90;;;9.10;99.90;;;;;;5073074;28;20081;-69
2023/04/16 03:43:35;;;;;;;11.63;3.58;;;9.10;99.90;;;;;;5073504;28;20033;-69
2023/04/16 03:46:01;;;;;;;12.73;4.40;;;9.10;99.90;;;;;;5073744;28;20025;-69
2023/04/16 03:48:26;;;;;;;13.13;4.00;;;9.10;99.90;;;;;;5072084;28;20029;-69
2023/04/16 03:50:52;;;;;;;19.00;4.22;;;9.10;99.90;;;;;;5074845;28;20037;-70
2023/04/16 03:53:17;;;;;;;17.02;4.35;;;9.00;99.90;;;;;;5085027;28;20097;-69
2023/04/16 03:55:43;;;;;;;13.38;3.42;;;9.00;99.90;;;;;;5073311;28;20472;-68
2023/04/16 03:58:09;;;;;;;17.08;4.65;;;9.10;99.90;;;;;;5073191;28;20372;-70
2023/04/16 04:00:35;;;;;;;18.55;4.60;;;9.00;99.90;;;;;;5073758;28;20039;-69
2023/04/16 04:03:00;;;;;;;15.27;4.20;;;9.10;99.90;;;;;;5091166;28;20138;-70
2023/04/16 04:05:26;;;;;;;14.77;4.15;;;9.00;99.90;;;;;;5073762;28;20436;-69
2023/04/16 04:07:51;;;;;;;18.55;5.18;;;9.10;99.90;;;;;;5073055;28;20033;-69
2023/04/16 04:10:17;;;;;;;19.38;4.63;;;9.10;99.90;;;;;;5072947;28;20054;-69
2023/04/16 04:12:42;;;;;;;17.15;4.97;;;9.10;99.90;;;;;;5073455;28;20045;-69
2023/04/16 04:15:09;;;;;;;16.63;4.97;;;9.10;99.90;;;;;;5070753;28;20119;-69
2023/04/16 04:17:34;;;;;;;12.88;4.18;;;9.10;99.90;;;;;;5073320;28;20111;-69
2023/04/16 04:20:00;;;;;;;19.92;4.63;;;9.10;99.90;;;;;;5071756;28;20140;-69
2023/04/16 04:22:25;;;;;;;10.32;3.42;;;9.10;99.90;;;;;;5076278;28;20090;-69
2023/04/16 04:24:51;;;;;;;17.92;4.72;;;9.20;99.90;;;;;;5072179;28;20424;-69
2023/04/16 04:27:16;;;;;;;14.75;4.28;;;9.10;99.90;;;;;;5072971;28;20079;-69
2023/04/16 04:29:42;;;;;;;20.08;4.97;;;9.10;99.90;;;;;;5072804;28;20024;-69
2023/04/16 04:32:07;;;;;;;17.98;4.00;;;9.10;99.90;;;;;;5073224;28;20024;-68
2023/04/16 04:34:33;;;;;;;14.38;5.40;;;9.10;99.90;;;;;;5072672;28;20028;-69
2023/04/16 04:36:58;;;;;;;14.70;4.43;;;9.10;99.90;;;;;;5072931;28;20384;-68
2023/04/16 04:39:24;;;;;;;18.10;5.00;;;9.10;99.90;;;;;;5072703;28;20063;-69
2023/04/16 04:41:50;;;;;;;15.85;4.68;;;9.10;99.90;;;;;;5084522;28;20043;-69
2023/04/16 04:44:15;;;;;;;15.90;4.68;;;9.10;99.90;;;;;;5077619;28;20032;-69
2023/04/16 04:46:41;;;;;;;11.00;4.20;;;9.10;99.90;;;;;;5072682;28;20029;-69
2023/04/16 04:49:06;;;;;;;17.65;5.32;;;9.10;99.90;;;;;;5072004;28;20102;-69
2023/04/16 04:51:32;;;;;;;17.80;5.30;;;9.10;99.90;;;;;;5072683;28;20366;-69
2023/04/16 04:53:58;;;;;;;19.83;6.15;;;9.10;99.90;;;;;;5072487;28;20032;-69
2023/04/16 04:56:23;;;;;;;20.38;5.35;;;9.10;99.90;;;;;;5072815;28;20064;-69
2023/04/16 04:58:50;;;;;;;17.50;5.40;;;9.10;99.90;;;;;;5071050;28;20074;-69
2023/04/16 05:01:15;;;;;;;14.45;4.78;;;9.20;99.90;;;;;;5079043;28;20028;-69
2023/04/16 05:03:41;;;;;;;16.45;5.00;;;9.20;99.90;;;;;;5093066;28;20433;-69
2023/04/16 05:06:07;;;;;;;15.50;5.07;;;9.20;99.90;;;;;;5073470;28;20040;-70
2023/04/16 05:08:32;;;;;;;17.63;4.97;;;9.30;99.90;;;;;;5072525;28;20128;-70
2023/04/16 05:10:58;;;;;;;13.60;4.07;;;9.20;99.90;;;;;;5072362;28;20382;-70
2023/04/16 05:13:23;;;;;;;15.02;4.70;;;9.30;99.90;;;;;;5072733;28;20036;-70
2023/04/16 05:15:49;;;;;;;18.90;5.35;;;9.30;99.90;;;;;;5072458;28;20035;-70
2023/04/16 05:18:15;;;;;;;18.88;4.60;;;9.30;99.90;;;;;;5072471;28;20078;-70
2023/04/16 05:20:40;;;;;;;15.15;5.63;;;9.30;99.90;;;;;;5072355;28;20077;-71
2023/04/16 05:23:06;;;;;;;20.45;5.55;;;9.30;99.90;;;;;;5091514;28;20089;-70
2023/04/16 05:25:31;;;;;;;17.52;5.40;;;9.30;99.90;;;;;;5080256;28;20032;-70
2023/04/16 05:27:57;;;;;;;25.50;6.03;;;9.30;99.90;;;;;;5072522;28;20049;-70
2023/04/16 05:30:22;;;;;;;16.67;5.93;;;9.30;99.90;;;;;;5072111;28;20038;-71
2023/04/16 05:32:48;;;;;;;17.17;6.40;;;9.30;99.90;;;;;;5096150;28;20028;-70
2023/04/16 05:35:14;;;;;;;20.35;5.78;;;9.30;99.90;;;;;;5092486;28;20056;-71
2023/04/16 05:37:39;;;;;;;21.30;6.90;;;9.40;99.90;;;;;;5076632;28;20025;-70
2023/04/16 05:40:06;;;;;;;19.08;5.88;;;9.30;99.90;;;;;;5076500;28;20395;-70
2023/04/16 05:42:31;;;;;;;20.63;6.30;;;9.30;99.90;;;;;;5092735;28;20032;-70
2023/04/16 05:44:57;;;;;;;24.10;8.55;;;9.40;99.90;;;;;;5077012;28;20028;-70
2023/04/16 05:47:23;;;;;;;22.33;6.25;;;9.30;99.90;;;;;;5075229;28;20032;-70
2023/04/16 05:49:48;;;;;;;21.73;7.25;;;9.30;99.90;;;;;;5075280;28;20036;-71
2023/04/16 05:52:14;;;;;;;23.10;7.72;;;9.30;99.90;;;;;;5075143;28;20117;-70
2023/04/16 05:54:40;;;;;;;16.08;6.38;;;9.30;99.90;;;;;;5075957;28;20028;-70
2023/04/16 05:57:06;;;;;;;22.95;7.50;;;9.40;99.90;;;;;;5075454;28;20036;-70
2023/04/16 05:59:31;;;;;;;20.17;6.40;;;9.40;99.90;;;;;;5076144;28;20077;-70
2023/04/16 06:01:57;;;;;;;23.30;7.40;;;9.40;99.90;;;;;;5074750;28;20052;-70
2023/04/16 06:04:22;;;;;;;23.08;8.68;;;9.30;99.90;;;;;;5075325;28;20123;-71
2023/04/16 06:06:48;;;;;;;26.17;9.43;;;9.40;99.90;;;;;;5074820;28;20362;-70
2023/04/16 06:09:14;;;;;;;18.40;6.80;;;9.40;99.90;;;;;;5075821;28;20067;-70
2023/04/16 06:11:39;;;;;;;26.23;8.15;;;9.40;99.90;;;;;;5075187;28;20075;-70
2023/04/16 06:14:05;;;;;;;19.83;7.72;;;9.40;99.90;;;;;;5075854;28;20035;-71
2023/04/16 06:16:31;;;;;;;16.25;5.80;;;9.30;99.90;;;;;;5075040;28;20029;-70
2023/04/16 06:18:56;;;;;;;18.13;6.80;;;9.40;99.90;;;;;;5074920;28;20021;-70
2023/04/16 06:21:22;;;;;;;19.80;6.28;;;9.40;99.90;;;;;;5073654;28;20032;-70
2023/04/16 06:23:47;;;;;;;21.92;7.35;;;9.40;99.90;;;;;;5073365;28;20101;-71
2023/04/16 06:26:13;;;;;;;19.65;5.15;;;9.40;99.90;;;;;;5074887;28;20079;-70
2023/04/16 06:28:38;;;;;;;11.30;4.50;;;9.50;99.90;;;;;;5075177;28;20490;-70
2023/04/16 06:31:04;;;;;;;21.63;6.20;;;9.50;99.90;;;;;;5074578;28;20048;-70
2023/04/16 06:33:30;;;;;;;16.02;5.43;;;9.50;99.90;;;;;;5074561;28;20078;-70
2023/04/16 06:35:55;;;;;;;20.08;6.22;;;9.60;99.90;;;;;;5074549;28;20039;-70
2023/04/16 06:38:21;;;;;;;17.13;6.45;;;9.60;99.90;;;;;;5074660;28;20033;-70
2023/04/16 06:40:48;;;;;;;16.30;6.38;;;9.70;99.90;;;;;;5074548;28;20031;-70
2023/04/16 06:43:14;;;;;;;12.73;4.35;;;9.70;99.90;;;;;;5073140;28;20047;-70
2023/04/16 06:45:40;;;;;;;16.73;6.28;;;9.70;99.90;;;;;;5074617;28;20033;-70
2023/04/16 06:48:06;;;;;;;18.27;6.78;;;9.70;99.90;;;;;;5079544;28;20032;-71
2023/04/16 06:50:31;;;;;;;16.48;7.32;;;9.60;99.90;;;;;;5074114;28;20346;-70
2023/04/16 06:52:57;;;;;;;24.40;7.28;;;9.70;99.90;;;;;;5074179;28;20036;-70
2023/04/16 06:55:22;;;;;;;15.50;6.65;;;9.70;99.90;;;;;;5074444;28;20525;-70
2023/04/16 06:57:48;;;;;;;21.92;7.30;;;9.80;99.90;;;;;;5073504;28;20115;-71
2023/04/16 07:00:14;;;;;;;17.08;5.55;;;9.70;99.90;;;;;;5072253;28;20028;-71
2023/04/16 07:02:40;;;;;;;18.48;5.88;;;9.80;99.90;;;;;;5073719;28;20031;-71
2023/04/16 07:05:06;;;;;;;14.88;5.85;;;9.80;99.90;;;;;;5074293;28;20025;-70
2023/04/16 07:07:31;;;;;;;18.25;5.60;;;9.80;99.90;;;;;;5081341;28;20051;-70
2023/04/16 07:09:58;;;;;;;15.13;6.18;;;9.80;99.90;;;;;;5076658;28;20107;-70
2023/04/16 07:12:23;;;;;;;16.65;5.80;;;9.80;99.90;;;;;;5092043;28;20448;-70
2023/04/16 07:14:49;;;;;;;16.17;5.00;;;9.90;99.90;;;;;;5074392;28;20135;-71
2023/04/16 07:17:15;;;;;;;12.73;5.32;;;9.90;99.90;;;;;;5074094;28;20047;-71
2023/04/16 07:19:40;;;;;;;12.10;4.90;;;9.90;99.90;;;;;;5074971;28;20043;-70
2023/04/16 07:22:06;;;;;;;9.95;4.35;;;9.90;99.90;;;;;;5094275;28;20016;-70
2023/04/16 07:24:31;;;;;;;14.20;5.38;;;9.90;99.90;;;;;;5075725;28;20078;-70
2023/04/16 07:26:57;;;;;;;18.55;5.03;;;10.00;99.90;;;;;;5073980;28;20636;-70
2023/04/16 07:29:23;;;;;;;10.70;3.90;;;10.00;99.90;;;;;;5073826;28;20028;-70
2023/04/16 07:31:48;;;;;;;14.30;6.18;;;10.00;99.90;;;;;;5081801;28;20032;-70
2023/04/16 07:34:14;;;;;;;17.70;5.32;;;10.00;99.90;;;;;;5076345;28;20032;-71
2023/04/16 07:36:40;;;;;;;16.98;6.35;;;10.00;99.90;;;;;;5094629;28;20031;-71
2023/04/16 07:39:06;;;;;;;14.40;5.43;;;10.00;99.90;;;;;;5078556;28;20024;-71
2023/04/16 07:41:32;;;;;;;16.52;5.65;;;10.00;99.90;;;;;;5073963;28;20126;-71
2023/04/16 07:43:57;;;;;;;13.40;4.70;;;10.00;99.90;;;;;;5073106;28;20097;-71
2023/04/16 07:46:23;;;;;;;19.00;7.00;;;10.10;99.90;;;;;;5072413;28;20025;-71
2023/04/16 07:48:49;;;;;;;22.88;7.70;;;10.10;99.90;;;;;;5072298;28;20396;-70
2023/04/16 07:51:14;;;;;;;13.10;5.13;;;10.10;99.90;;;;;;5075413;28;20024;-71
2023/04/16 07:53:42;;;;;;;19.83;6.28;;;10.20;99.90;;;;;;5072279;28;21473;-71
2023/04/16 07:56:08;;;;;;;12.80;5.05;;;10.10;99.90;;;;;;5070670;28;20396;-71
2023/04/16 07:58:33;;;;;;;19.30;5.88;;;10.20;99.90;;;;;;5072232;28;20028;-70
2023/04/16 08:00:59;;;;;;;12.65;4.60;;;10.20;99.90;;;;;;5076942;28;20395;-70
2023/04/16 08:03:25;;;;;;;16.38;6.40;;;10.30;99.90;;;;;;5072632;28;20032;-70
2023/04/16 08:05:50;;;;;;;12.07;4.97;;;10.30;99.90;;;;;;5073078;28;20035;-71
2023/04/16 08:08:16;;;;;;;16.33;5.32;;;10.40;99.90;;;;;;5073007;28;20095;-72
2023/04/16 08:10:41;;;;;;;14.55;4.47;;;10.60;99.90;;;;;;5073936;28;20032;-71
2023/04/16 08:13:08;;;;;;;14.23;5.25;;;10.70;99.90;;;;;;5072689;28;20056;-71
2023/04/16 08:15:33;;;;;;;12.52;4.90;;;10.80;99.90;;;;;;5072156;28;20029;-71
2023/04/16 08:17:59;;;;;;;16.75;5.47;;;10.90;99.90;;;;;;5070203;28;20044;-71
2023/04/16 08:20:25;;;;;;;18.55;6.35;;;10.90;99.90;;;;;;5066642;28;20081;-71
2023/04/16 08:22:52;;;;;;;10.85;4.55;;;11.00;99.90;;;;;;5068513;28;20116;-71
2023/04/16 08:25:21;;;;;;;14.40;4.70;;;11.10;99.90;;;;;;5069012;28;20028;-72
2023/04/16 08:27:47;;;;;;;18.52;5.88;;;11.10;99.90;;;;;;5067296;28;20075;-71
2023/04/16 08:30:15;;;;;;;16.88;5.82;;;11.10;99.90;;;;;;5060770;28;20064;-71
2023/04/16 08:32:41;;;;;;;16.77;5.05;;;11.10;99.90;;;;;;5070039;28;20025;-71
2023/04/16 08:35:07;;;;;;;21.58;6.40;;;11.10;99.90;;;;;;5060723;28;20031;-71
2023/04/16 08:37:33;;;;;;;13.15;5.38;;;11.10;99.90;;;;;;5066708;28;20107;-71
2023/04/16 08:39:59;;;;;;;17.27;5.13;;;11.10;99.90;;;;;;5071653;28;20497;-72
2023/04/16 08:42:52;;;;;;;15.35;5.40;;;11.10;99.90;;;;;;5071551;28;20064;-71
2023/04/16 08:45:19;;;;;;;17.02;5.57;;;11.20;99.90;;;;;;5069558;28;20043;-71
2023/04/16 08:47:49;;;;;;;17.17;6.38;;;11.20;99.90;;;;;;5071506;28;20025;-72
2023/04/16 08:50:16;;;;;;;20.70;6.53;;;11.20;99.90;;;;;;5069412;28;20024;-71
2023/04/16 08:52:49;;;;;;;15.57;5.65;;;11.30;99.90;;;;;;5069662;28;20033;-70
2023/04/16 08:55:17;;;;;;;17.67;6.40;;;11.40;99.90;;;;;;5070699;28;20033;-71
2023/04/16 08:57:57;;;;;;;19.88;5.88;;;11.50;99.90;;;;;;5071844;28;20025;-71
2023/04/16 09:00:23;;;;;;;19.40;6.80;;;11.60;99.90;;;;;;5078847;28;20107;-71
2023/04/16 09:02:50;;;;;;;17.13;6.22;;;11.70;99.90;;;;;;5063391;28;20043;-71
2023/04/16 09:05:16;;;;;;;14.70;6.53;;;11.60;99.90;;;;;;5071933;28;20056;-72
2023/04/16 09:07:46;;;;;;;17.60;6.90;;;11.60;99.90;;;;;;5073972;28;20020;-72
2023/04/16 09:10:13;;;;;;;18.10;6.97;;;11.50;99.90;;;;;;5076495;28;20033;-72
2023/04/16 09:12:43;;;;;;;20.42;5.95;;;11.60;99.90;;;;;;5064375;28;20140;-71
2023/04/16 09:15:10;;;;;;;17.85;7.40;;;11.60;99.90;;;;;;5070662;28;20040;-70
2023/04/16 09:17:36;;;;;;;17.58;6.00;;;11.60;99.90;;;;;;5059190;28;20040;-70
2023/04/16 09:20:04;;;;;;;14.93;6.05;;;11.60;99.90;;;;;;5074066;28;20028;-70
2023/04/16 09:22:30;;;;;;;20.35;5.53;;;11.50;99.90;;;;;;5062449;28;20036;-70
2023/04/16 09:24:56;;;;;;;26.52;8.38;;;11.50;99.90;;;;;;5062416;28;20036;-71
2023/04/16 09:27:23;;;;;;;20.58;6.95;;;11.60;99.90;;;;;;5074789;28;20062;-71
2023/04/16 09:29:49;;;;;;;24.67;7.65;;;11.70;99.90;;;;;;5065239;28;20033;-71
2023/04/16 09:32:14;;;;;;;17.08;6.03;;;11.70;99.90;;;;;;5075782;28;20078;-70
2023/04/16 09:34:59;;;;;;;20.25;6.50;;;11.70;99.90;;;;;;5069633;28;20033;-71
2023/04/16 09:37:28;;;;;;;16.98;5.47;;;11.60;99.90;;;;;;5060902;28;20143;-70
2023/04/16 09:39:55;;;;;;;19.98;6.80;;;11.70;99.90;;;;;;5069236;28;20040;-70
2023/04/16 09:42:26;;;;;;;18.83;6.82;;;11.70;99.90;;;;;;5076180;28;20457;-71
2023/04/16 09:44:52;;;;;;;18.73;7.03;;;11.70;99.90;;;;;;5074201;28;20056;-71
2023/04/16 09:47:18;;;;;;;28.77;12.90;;;11.70;99.90;;;;;;5069781;28;20029;-71
2023/04/16 09:49:44;;;;;;;26.52;11.05;;;11.80;99.90;;;;;;5071415;28;20044;-72
2023/04/16 09:52:15;;;;;;;24.35;9.30;;;11.90;99.90;;;;;;5073968;28;20025;-71
2023/04/16 09:54:51;;;;;;;21.45;7.90;;;11.90;99.90;;;;;;5069397;28;20029;-71
2023/04/16 09:57:22;;;;;;;16.48;5.95;;;12.00;99.90;;;;;;5073442;28;20016;-71
2023/04/16 09:59:53;;;;;;;18.33;5.45;;;12.10;99.90;;;;;;5071523;28;20170;-71
2023/04/16 10:02:19;;;;;;;20.38;6.45;;;12.10;99.90;;;;;;5072325;28;20037;-71
2023/04/16 10:04:50;;;;;;;18.85;6.78;;;12.10;99.90;;;;;;5067389;28;20048;-71
2023/04/16 10:07:17;;;;;;;19.45;6.28;;;12.00;99.90;;;;;;5072690;28;20389;-71
2023/04/16 10:09:43;;;;;;;18.65;8.13;;;12.00;99.90;;;;;;5070486;28;20025;-71
2023/04/16 10:12:11;;;;;;;22.42;9.90;;;11.90;99.90;;;;;;5063666;28;20043;-71
2023/04/16 10:14:37;;;;;;;19.88;6.93;;;11.90;99.90;;;;;;5072323;28;20036;-71
2023/04/16 10:17:07;;;;;;;21.50;8.60;;;11.90;99.90;;;;;;5065992;28;20024;-73
2023/04/16 10:19:34;;;;;;;21.13;8.20;;;11.90;99.90;;;;;;5071724;28;20035;-71
2023/04/16 10:22:02;;;;;;;25.25;8.40;;;11.90;99.90;;;;;;5068705;28;20078;-72
2023/04/16 10:24:29;;;;;;;24.92;9.48;;;12.00;99.90;;;;;;5069874;28;20127;-72
2023/04/16 10:26:58;;;;;;;19.50;7.65;;;12.10;99.90;;;;;;5064384;28;20036;-71
2023/04/16 10:29:28;;;;;;;18.55;7.60;;;12.10;99.90;;;;;;5054011;28;20086;-71
2023/04/16 10:31:55;;;;;;;25.45;9.23;;;12.10;99.90;;;;;;5054108;28;20106;-72
2023/04/16 10:34:23;;;;;;;22.02;6.57;;;12.10;99.90;;;;;;5053876;28;20032;-71
2023/04/16 10:36:51;;;;;;;18.80;6.50;;;12.10;99.90;;;;;;5054531;28;20082;-72
2023/04/16 10:39:24;;;;;;;21.85;7.47;;;12.10;99.90;;;;;;5049466;28;20036;-72
2023/04/16 10:42:06;;;;;;;22.58;8.20;;;12.10;99.90;;;;;;5053256;28;20520;-72
2023/04/16 10:44:32;;;;;;;21.50;7.97;;;12.10;99.90;;;;;;5048737;28;20473;-72
2023/04/16 10:46:59;;;;;;;19.80;8.52;;;12.10;99.90;;;;;;5050312;28;20465;-72
2023/04/16 10:49:25;;;;;;;19.88;7.65;;;12.20;99.90;;;;;;5050480;28;20123;-72
2023/04/16 10:52:09;;;;;;;18.65;7.40;;;12.20;99.90;;;;;;5053291;28;20405;-72
2023/04/16 10:54:35;;;;;;;22.88;7.50;;;12.30;99.90;;;;;;5051471;28;20029;-71
2023/04/16 10:57:07;;;;;;;22.17;7.22;;;12.20;99.90;;;;;;5049592;28;20029;-72
2023/04/16 10:59:34;;;;;;;22.88;7.95;;;12.10;99.90;;;;;;5038375;28;20037;-72
2023/04/16 11:02:05;;;;;;;22.55;7.22;;;12.10;99.90;;;;;;5050873;28;20082;-72
2023/04/16 11:04:36;;;;;;;24.90;8.25;;;12.20;99.90;;;;;;5048157;28;20136;-72
2023/04/16 11:07:10;;;;;;;28.70;9.05;;;12.10;99.90;;;;;;5042820;28;20024;-71
2023/04/16 11:09:55;;;;;;;24.35;8.93;;;12.10;99.90;;;;;;5052772;28;20055;-72
2023/04/16 11:12:26;;;;;;;26.67;9.13;;;12.20;99.90;;;;;;5040768;28;20401;-72
2023/04/16 11:15:00;;;;;;;22.42;8.18;;;12.30;99.90;;;;;;5051176;28;20469;-72
2023/04/16 11:17:35;;;;;;;23.48;8.35;;;12.30;99.90;;;;;;5046159;28;20044;-72
2023/04/16 11:20:01;;;;;;;23.38;8.43;;;12.40;99.90;;;;;;5051699;28;20541;-70
2023/04/16 11:22:27;;;;;;;21.25;8.05;;;12.50;99.90;;;;;;5048279;28;20119;-72
2023/04/16 11:24:55;;;;;;;25.77;8.63;;;12.60;99.90;;;;;;5053235;28;20128;-70
2023/04/16 11:27:22;;;;;;;24.25;9.48;;;12.60;99.90;;;;;;5051840;28;20049;-72
2023/04/16 11:30:10;;;;;;;24.52;7.53;;;12.70;99.90;;;;;;5065508;28;20113;-71
2023/04/16 11:32:37;;;;;;;22.10;7.55;;;12.70;99.90;;;;;;5062838;28;20032;-71
2023/04/16 11:35:13;;;;;;;24.48;7.43;;;12.70;99.90;;;;;;5067347;28;20086;-71
2023/04/16 11:37:39;;;;;;;25.00;9.20;;;12.70;99.90;;;;;;5071825;28;20119;-71
2023/04/16 11:40:09;;;;;;;32.55;9.65;;;12.70;99.90;;;;;;5072976;28;20095;-73
2023/04/16 11:42:39;;;;;;;21.52;8.70;;;12.70;99.90;;;;;;5070539;28;20152;-72
2023/04/16 11:45:06;;;;;;;25.30;9.55;;;12.80;99.90;;;;;;5065817;28;20037;-71
2023/04/16 11:47:43;;;;;;;20.98;9.00;;;12.80;99.90;;;;;;5063777;28;20447;-72
2023/04/16 11:50:19;;;;;;;24.25;8.93;;;12.80;99.90;;;;;;5059997;28;20537;-72
2023/04/16 11:52:45;;;;;;;26.52;9.15;;;12.90;99.90;;;;;;5064408;28;20082;-71
2023/04/16 11:55:11;;;;;;;28.83;10.52;;;13.00;99.90;;;;;;5070897;28;20456;-71
2023/04/16 11:57:37;;;;;;;26.85;10.13;;;13.10;99.90;;;;;;5069518;28;20524;-71
2023/04/16 12:00:04;;;;;;;28.25;9.27;;;13.20;99.90;;;;;;5073718;28;20115;-71
2023/04/16 12:02:33;;;;;;;27.30;9.48;;;13.30;99.90;;;;;;5068332;28;20472;-71
2023/04/16 12:04:59;;;;;;;27.83;10.38;;;13.30;99.90;;;;;;5069654;28;20036;-71
2023/04/16 12:07:25;;;;;;;27.00;9.10;;;13.40;99.90;;;;;;5072455;28;20468;-71
2023/04/16 12:09:50;;;;;;;24.33;9.57;;;13.30;99.90;;;;;;5072963;28;20039;-71
2023/04/16 12:12:30;;;;;;;24.58;8.63;;;13.30;99.90;;;;;;5069483;28;20031;-71
2023/04/16 12:14:56;;;;;;;31.02;9.40;;;13.30;99.90;;;;;;5070106;28;20098;-70
2023/04/16 12:17:22;;;;;;;22.75;8.18;;;13.30;99.90;;;;;;5067085;28;20025;-71
2023/04/16 12:20:04;;;;;;;29.67;9.25;;;13.20;99.90;;;;;;5068744;28;20040;-72
2023/04/16 12:22:35;;;;;;;26.52;8.40;;;13.30;99.90;;;;;;5061217;28;20043;-72
2023/04/16 12:25:10;;;;;;;25.08;9.18;;;13.30;99.90;;;;;;5062774;28;20479;-72
2023/04/16 12:27:46;;;;;;;22.33;8.90;;;13.40;99.90;;;;;;5067962;28;20048;-71
2023/04/16 12:30:16;;;;;;;23.33;9.20;;;13.40;99.90;;;;;;5067868;28;20036;-72
2023/04/16 12:32:43;;;;;;;28.75;9.57;;;13.40;99.90;;;;;;5070373;28;20028;-72
2023/04/16 12:35:12;;;;;;;23.05;9.18;;;13.40;99.90;;;;;;5071949;28;20115;-72
2023/04/16 12:37:39;;;;;;;24.10;8.90;;;13.50;99.90;;;;;;5065170;28;20111;-69
2023/04/16 12:40:05;;;;;;;24.85;9.18;;;13.70;99.90;;;;;;5069649;28;20076;-72
2023/04/16 12:42:36;;;;;;;23.15;8.60;;;13.70;99.90;;;;;;5068065;28;20559;-71